Time,TemperatureF,DewpointF,PressureIn,WindDirection,WindDirectionDegrees,WindSpeedMPH,WindSpeedGustMPH,Humidity,HourlyPrecipIn,Conditions,Clouds,dailyrainin,SoftwareType,DateUTC
2013-09-17 00:01:00,52.5,49.1,29.77,NE,35,0.0,0.0,88,0.00,,---,0.00,VWS V14.01,2013-09-17 07:01:00,
2013-09-17 00:06:00,52.5,49.1,29.77,NE,35,0.0,0.0,88,0.00,,---,0.00,VWS V14.01,2013-09-17 07:06:00,
2013-09-17 00:11:00,52.5,49.1,29.77,NE,37,0.0,0.0,88,0.00,,---,0.00,VWS V14.01,2013-09-17 07:11:00,
2013-09-17 00:16:00,52.5,49.1,29.77,NE,43,0.0,0.0,88,0.00,,---,0.00,VWS V14.01,2013-09-17 07:16:00,
2013-09-17 00:21:00,52.5,49.1,29.77,NNE,27,0.0,0.0,88,0.00,,---,0.00,VWS V14.01,2013-09-17 07:21:00,
2013-09-17 00:26:00,52.3,48.9,29.77,NNE,30,0.0,0.0,88,0.00,,---,0.00,VWS V14.01,2013-09-17 07:26:00,
2013-09-17 00:31:00,52.3,48.9,29.77,NNE,30,0.0,0.0,88,0.00,,---,0.00,VWS V14.01,2013-09-17 07:31:00,
2013-09-17 00:36:00,52.2,48.7,29.77,NNE,30,0.0,0.0,88,0.00,,---,0.00,VWS V14.01,2013-09-17 07:36:00,
2013-09-17 00:41:00,52.0,48.5,29.77,NNE,30,0.0,0.0,88,0.00,,---,0.00,VWS V14.01,2013-09-17 07:41:00,
2013-09-17 00:46:00,52.0,48.8,29.77,NNE,30,0.0,0.0,89,0.00,,---,0.00,VWS V14.01,2013-09-17 07:46:00,
2013-09-17 00:51:00,51.8,48.7,29.77,NNE,30,0.0,0.0,89,0.00,,---,0.00,VWS V14.01,2013-09-17 07:51:00,
2013-09-17 00:56:00,51.8,48.7,29.77,NNE,30,0.0,0.0,89,0.00,,---,0.00,VWS V14.01,2013-09-17 07:56:00,
2013-09-17 01:01:00,51.8,48.7,29.77,NNE,30,0.0,0.0,89,0.00,,---,0.00,VWS V14.01,2013-09-17 08:01:00,
2013-09-17 01:07:00,51.8,48.7,29.77,NNE,30,0.0,0.0,89,0.00,,---,0.00,VWS V14.01,2013-09-17 08:07:00,
2013-09-17 01:12:00,51.6,48.5,29.77,NNE,30,0.0,0.0,89,0.00,,---,0.00,VWS V14.01,2013-09-17 08:12:00,
2013-09-17 01:17:00,51.6,48.5,29.77,NNE,30,0.0,0.0,89,0.00,,---,0.00,VWS V14.01,2013-09-17 08:17:00,
2013-09-17 01:22:00,51.6,48.5,29.77,ENE,60,0.0,0.0,89,0.00,,---,0.00,VWS V14.01,2013-09-17 08:22:00,
2013-09-17 01:27:00,51.6,48.5,29.77,NE,44,0.0,0.0,89,0.00,,---,0.00,VWS V14.01,2013-09-17 08:27:00,
2013-09-17 01:32:00,51.6,48.8,29.77,NE,44,0.0,0.0,90,0.00,,---,0.00,VWS V14.01,2013-09-17 08:32:00,
2013-09-17 01:37:00,51.4,48.6,29.77,NE,44,0.0,0.0,90,0.00,,---,0.00,VWS V14.01,2013-09-17 08:37:00,
2013-09-17 01:42:00,51.4,48.6,29.77,NE,44,0.0,0.0,90,0.00,,---,0.00,VWS V14.01,2013-09-17 08:42:00,
2013-09-17 01:47:00,51.4,48.6,29.77,NE,44,0.0,0.0,90,0.00,,---,0.00,VWS V14.01,2013-09-17 08:47:00,
2013-09-17 01:52:00,51.4,48.6,29.77,NE,44,0.0,0.0,90,0.00,,---,0.00,VWS V14.01,2013-09-17 08:52:00,
2013-09-17 01:57:00,51.3,48.4,29.77,NE,44,0.0,0.0,90,0.00,,---,0.00,VWS V14.01,2013-09-17 08:57:00,
2013-09-17 02:02:00,51.1,48.2,29.74,NE,44,0.0,0.0,90,0.00,,---,0.00,VWS V14.01,2013-09-17 09:02:00,
2013-09-17 02:07:00,51.1,48.2,29.74,NE,44,0.0,0.0,90,0.00,,---,0.00,VWS V14.01,2013-09-17 09:07:00,
2013-09-17 02:12:00,50.9,48.1,29.74,ENE,69,0.0,0.0,90,0.00,,---,0.00,VWS V14.01,2013-09-17 09:12:00,
2013-09-17 02:17:00,50.9,48.1,29.74,ENE,69,0.0,0.0,90,0.00,,---,0.00,VWS V14.01,2013-09-17 09:17:00,
2013-09-17 02:22:00,50.7,47.9,29.74,ENE,69,0.0,0.0,90,0.00,,---,0.00,VWS V14.01,2013-09-17 09:22:00,
2013-09-17 02:27:00,50.7,47.9,29.74,SE,133,2.2,3.1,90,0.00,,---,0.00,VWS V14.01,2013-09-17 09:27:00,
2013-09-17 02:32:00,50.7,47.9,29.74,SE,132,0.0,0.0,90,0.00,,---,0.00,VWS V14.01,2013-09-17 09:32:00,
2013-09-17 02:37:00,50.7,47.9,29.74,SE,133,0.0,0.0,90,0.00,,---,0.00,VWS V14.01,2013-09-17 09:37:00,
2013-09-17 02:42:00,50.5,47.7,29.74,ESE,108,0.0,0.0,90,0.00,,---,0.00,VWS V14.01,2013-09-17 09:42:00,
2013-09-17 02:47:00,50.5,47.7,29.74,ESE,107,0.0,0.0,90,0.00,,---,0.00,VWS V14.01,2013-09-17 09:47:00,
2013-09-17 02:52:00,50.4,47.5,29.74,NNE,14,0.0,6.3,90,0.00,,---,0.00,VWS V14.01,2013-09-17 09:52:00,
2013-09-17 02:58:00,50.4,47.5,29.74,SE,133,0.0,6.3,90,0.00,,---,0.00,VWS V14.01,2013-09-17 09:58:00,
2013-09-17 03:03:00,50.2,47.4,29.74,SE,124,0.0,5.8,90,0.00,,---,0.00,VWS V14.01,2013-09-17 10:03:00,
2013-09-17 03:08:00,50.4,47.5,29.74,NNE,18,0.0,5.8,90,0.00,,---,0.00,VWS V14.01,2013-09-17 10:08:00,
2013-09-17 03:13:00,50.4,47.5,29.74,SE,126,0.0,0.0,90,0.00,,---,0.00,VWS V14.01,2013-09-17 10:13:00,
2013-09-17 03:18:00,50.4,47.5,29.74,SE,143,0.0,4.9,90,0.00,,---,0.00,VWS V14.01,2013-09-17 10:18:00,
2013-09-17 03:23:00,50.4,47.5,29.74,SE,129,0.0,4.0,90,0.00,,---,0.00,VWS V14.01,2013-09-17 10:23:00,
2013-09-17 03:28:00,50.4,47.5,29.74,East,83,0.0,4.0,90,0.00,,---,0.00,VWS V14.01,2013-09-17 10:28:00,
2013-09-17 03:33:00,50.4,47.5,29.74,NE,52,0.0,4.0,90,0.00,,---,0.00,VWS V14.01,2013-09-17 10:33:00,
2013-09-17 03:38:00,50.2,47.4,29.74,SE,128,3.1,4.0,90,0.00,,---,0.00,VWS V14.01,2013-09-17 10:38:00,
2013-09-17 03:43:00,50.2,47.4,29.74,NE,34,0.0,2.2,90,0.00,,---,0.00,VWS V14.01,2013-09-17 10:43:00,
2013-09-17 03:48:00,50.0,47.2,29.74,NE,34,0.0,2.2,90,0.00,,---,0.00,VWS V14.01,2013-09-17 10:48:00,
2013-09-17 03:53:00,49.8,47.3,29.74,NE,34,0.0,0.0,91,0.00,,---,0.00,VWS V14.01,2013-09-17 10:53:00,
2013-09-17 03:58:00,49.8,47.3,29.74,ESE,123,0.0,0.0,91,0.00,,---,0.00,VWS V14.01,2013-09-17 10:58:00,
2013-09-17 04:03:00,49.6,47.1,29.74,East,84,0.0,0.0,91,0.00,,---,0.00,VWS V14.01,2013-09-17 11:03:00,
2013-09-17 04:08:00,49.6,47.1,29.74,East,89,0.0,0.0,91,0.00,,---,0.00,VWS V14.01,2013-09-17 11:08:00,
2013-09-17 04:13:00,49.6,47.1,29.74,NNE,26,0.0,0.0,91,0.00,,---,0.00,VWS V14.01,2013-09-17 11:13:00,
2013-09-17 04:18:00,49.6,47.1,29.74,NE,47,0.0,0.0,91,0.00,,---,0.00,VWS V14.01,2013-09-17 11:18:00,
2013-09-17 04:23:00,49.6,47.1,29.74,NNE,28,0.0,4.5,91,0.00,,---,0.00,VWS V14.01,2013-09-17 11:23:00,
2013-09-17 04:28:00,49.5,47.0,29.74,NE,54,0.0,4.5,91,0.00,,---,0.00,VWS V14.01,2013-09-17 11:28:00,
2013-09-17 04:33:00,49.5,47.0,29.71,East,88,0.0,4.0,91,0.00,,---,0.00,VWS V14.01,2013-09-17 11:33:00,
2013-09-17 04:39:00,49.3,46.8,29.71,East,89,0.0,4.0,91,0.00,,---,0.00,VWS V14.01,2013-09-17 11:39:00,
2013-09-17 04:44:00,49.3,46.8,29.71,East,89,0.0,0.0,91,0.00,,---,0.00,VWS V14.01,2013-09-17 11:44:00,
2013-09-17 04:49:00,49.3,46.8,29.71,East,88,0.0,0.0,91,0.00,,---,0.00,VWS V14.01,2013-09-17 11:49:00,
2013-09-17 04:54:00,49.3,46.8,29.71,East,89,0.0,0.0,91,0.00,,---,0.00,VWS V14.01,2013-09-17 11:54:00,
2013-09-17 04:59:00,49.1,46.6,29.71,NNE,25,0.0,0.0,91,0.00,,---,0.00,VWS V14.01,2013-09-17 11:59:00,
2013-09-17 05:04:00,49.1,46.6,29.71,East,91,0.0,0.0,91,0.00,,---,0.00,VWS V14.01,2013-09-17 12:04:00,
2013-09-17 05:09:00,49.1,46.6,29.71,East,91,0.0,0.0,91,0.00,,---,0.00,VWS V14.01,2013-09-17 12:09:00,
2013-09-17 05:14:00,49.1,46.6,29.71,East,91,0.0,0.0,91,0.00,,---,0.00,VWS V14.01,2013-09-17 12:14:00,
2013-09-17 05:19:00,49.1,46.6,29.71,ESE,105,0.0,0.0,91,0.00,,---,0.00,VWS V14.01,2013-09-17 12:19:00,
2013-09-17 05:24:00,48.9,46.4,29.71,ESE,105,0.0,0.0,91,0.00,,---,0.00,VWS V14.01,2013-09-17 12:24:00,
2013-09-17 05:29:00,48.9,46.4,29.71,ESE,105,0.0,0.0,91,0.00,,---,0.00,VWS V14.01,2013-09-17 12:29:00,
2013-09-17 05:34:00,48.9,46.4,29.71,East,93,0.0,0.0,91,0.00,,---,0.00,VWS V14.01,2013-09-17 12:34:00,
2013-09-17 05:39:00,48.9,46.4,29.71,East,93,0.0,0.0,91,0.00,,---,0.00,VWS V14.01,2013-09-17 12:39:00,
2013-09-17 05:44:00,48.9,46.4,29.71,East,93,0.0,0.0,91,0.00,,---,0.00,VWS V14.01,2013-09-17 12:44:00,
2013-09-17 05:49:00,48.9,46.4,29.71,East,93,0.0,0.0,91,0.00,,---,0.00,VWS V14.01,2013-09-17 12:49:00,
2013-09-17 05:54:00,48.7,46.2,29.71,East,93,0.0,0.0,91,0.00,,---,0.00,VWS V14.01,2013-09-17 12:54:00,
2013-09-17 05:59:00,48.7,46.2,29.71,East,93,0.0,0.0,91,0.00,,---,0.00,VWS V14.01,2013-09-17 12:59:00,
2013-09-17 06:04:00,48.7,46.2,29.71,East,93,0.0,0.0,91,0.00,,---,0.00,VWS V14.01,2013-09-17 13:04:00,
2013-09-17 06:09:00,48.7,46.2,29.71,East,93,0.0,0.0,91,0.00,,---,0.00,VWS V14.01,2013-09-17 13:09:00,
2013-09-17 06:14:00,48.7,46.2,29.71,East,93,0.0,0.0,91,0.00,,---,0.00,VWS V14.01,2013-09-17 13:14:00,
2013-09-17 06:19:00,48.6,46.1,29.71,East,93,0.0,0.0,91,0.00,,---,0.00,VWS V14.01,2013-09-17 13:19:00,
2013-09-17 06:24:00,48.6,46.1,29.71,East,93,0.0,0.0,91,0.00,,---,0.00,VWS V14.01,2013-09-17 13:24:00,
2013-09-17 06:29:00,48.4,45.9,29.71,East,93,0.0,0.0,91,0.00,,---,0.00,VWS V14.01,2013-09-17 13:29:00,
2013-09-17 06:35:00,48.4,45.9,29.71,East,93,0.0,0.0,91,0.00,,---,0.00,VWS V14.01,2013-09-17 13:35:00,
2013-09-17 06:40:00,48.2,45.7,29.71,East,93,0.0,0.0,91,0.00,,---,0.00,VWS V14.01,2013-09-17 13:40:00,
2013-09-17 06:45:00,48.0,45.8,29.71,East,93,0.0,0.0,92,0.00,,---,0.00,VWS V14.01,2013-09-17 13:45:00,
2013-09-17 06:50:00,48.0,45.8,29.71,East,93,0.0,0.0,92,0.00,,---,0.00,VWS V14.01,2013-09-17 13:50:00,
2013-09-17 06:55:00,48.0,45.8,29.71,East,90,0.0,0.0,92,0.00,,---,0.00,VWS V14.01,2013-09-17 13:55:00,
2013-09-17 07:00:00,48.0,45.8,29.71,NNE,28,0.0,0.0,92,0.00,,---,0.00,VWS V14.01,2013-09-17 14:00:00,
2013-09-17 07:05:00,48.0,45.8,29.71,NNE,28,0.0,0.0,92,0.00,,---,0.00,VWS V14.01,2013-09-17 14:05:00,
2013-09-17 07:10:00,48.0,45.8,29.71,NNE,27,0.0,0.0,92,0.00,,---,0.00,VWS V14.01,2013-09-17 14:10:00,
2013-09-17 07:15:00,48.2,45.7,29.71,NNE,27,0.0,0.0,91,0.00,,---,0.00,VWS V14.01,2013-09-17 14:15:00,
2013-09-17 07:20:00,48.2,45.7,29.71,NNE,27,0.0,0.0,91,0.00,,---,0.00,VWS V14.01,2013-09-17 14:20:00,
2013-09-17 07:25:00,48.4,45.9,29.71,NNE,27,0.0,0.0,91,0.00,,---,0.00,VWS V14.01,2013-09-17 14:25:00,
2013-09-17 07:30:00,48.6,46.1,29.71,NNE,27,0.0,0.0,91,0.00,,---,0.00,VWS V14.01,2013-09-17 14:30:00,
2013-09-17 07:35:00,48.7,46.2,29.71,NNE,27,0.0,0.0,91,0.00,,---,0.00,VWS V14.01,2013-09-17 14:35:00,
2013-09-17 07:40:00,48.9,46.4,29.71,NNE,27,0.0,0.0,91,0.00,,---,0.00,VWS V14.01,2013-09-17 14:40:00,
2013-09-17 07:45:00,49.1,46.6,29.71,NNE,27,0.0,0.0,91,0.00,,---,0.00,VWS V14.01,2013-09-17 14:45:00,
2013-09-17 07:50:00,49.5,47.0,29.71,NNE,27,0.0,0.0,91,0.00,,---,0.00,VWS V14.01,2013-09-17 14:50:00,
2013-09-17 07:55:00,49.8,47.6,29.71,NNE,27,0.0,0.0,92,0.00,,---,0.00,VWS V14.01,2013-09-17 14:55:00,
2013-09-17 08:00:00,50.2,47.7,29.71,NNE,27,0.0,0.0,91,0.00,,---,0.00,VWS V14.01,2013-09-17 15:00:00,
2013-09-17 08:05:00,50.4,47.8,29.71,ENE,60,0.0,0.0,91,0.00,,---,0.00,VWS V14.01,2013-09-17 15:05:00,
2013-09-17 08:10:00,50.7,48.2,29.71,ENE,64,0.0,0.0,91,0.00,,---,0.00,VWS V14.01,2013-09-17 15:10:00,
2013-09-17 08:15:00,50.9,48.4,29.71,ENE,63,0.0,0.0,91,0.00,,---,0.00,VWS V14.01,2013-09-17 15:15:00,
2013-09-17 08:20:00,51.3,48.7,29.71,ENE,63,0.0,0.0,91,0.00,,---,0.00,VWS V14.01,2013-09-17 15:20:00,
2013-09-17 08:26:00,51.4,48.9,29.71,ENE,63,0.0,0.0,91,0.00,,---,0.00,VWS V14.01,2013-09-17 15:26:00,
2013-09-17 08:31:00,51.6,49.1,29.71,ENE,59,0.0,0.0,91,0.00,,---,0.00,VWS V14.01,2013-09-17 15:31:00,
2013-09-17 08:36:00,52.0,49.4,29.71,ENE,59,0.0,0.0,91,0.00,,---,0.00,VWS V14.01,2013-09-17 15:36:00,
2013-09-17 08:41:00,52.2,49.6,29.71,ENE,59,0.0,0.0,91,0.00,,---,0.00,VWS V14.01,2013-09-17 15:41:00,
2013-09-17 08:46:00,52.5,50.0,29.71,ENE,59,0.0,0.0,91,0.00,,---,0.00,VWS V14.01,2013-09-17 15:46:00,
2013-09-17 08:51:00,52.7,50.2,29.71,ESE,103,0.0,0.0,91,0.00,,---,0.00,VWS V14.01,2013-09-17 15:51:00,
2013-09-17 08:56:00,53.1,50.5,29.71,ESE,103,0.0,0.0,91,0.04,,---,0.04,VWS V14.01,2013-09-17 15:56:00,
2013-09-17 09:01:00,53.1,50.5,29.71,ENE,61,0.0,0.0,91,0.04,,---,0.04,VWS V14.01,2013-09-17 16:01:00,
2013-09-17 09:06:00,53.4,50.9,29.71,ENE,61,0.0,0.0,91,0.04,,---,0.04,VWS V14.01,2013-09-17 16:06:00,
2013-09-17 09:11:00,53.6,50.7,29.71,ENE,61,0.0,0.0,90,0.04,,---,0.04,VWS V14.01,2013-09-17 16:11:00,
2013-09-17 09:16:00,53.6,50.7,29.71,ENE,61,0.0,0.0,90,0.04,,---,0.04,VWS V14.01,2013-09-17 16:16:00,
2013-09-17 09:21:00,54.0,51.1,29.71,ENE,61,0.0,0.0,90,0.04,,---,0.04,VWS V14.01,2013-09-17 16:21:00,
2013-09-17 09:26:00,54.1,51.3,29.71,SE,130,3.1,3.1,90,0.04,,---,0.04,VWS V14.01,2013-09-17 16:26:00,
2013-09-17 09:31:00,54.3,51.5,29.71,SE,131,0.0,2.2,90,0.04,,---,0.04,VWS V14.01,2013-09-17 16:31:00,
2013-09-17 09:36:00,54.5,51.6,29.71,SE,131,0.0,2.7,90,0.04,,---,0.04,VWS V14.01,2013-09-17 16:36:00,
2013-09-17 09:41:00,54.7,51.8,29.71,SE,130,0.0,0.0,90,0.04,,---,0.04,VWS V14.01,2013-09-17 16:41:00,
2013-09-17 09:46:00,54.9,52.0,29.71,SE,130,0.0,0.0,90,0.04,,---,0.04,VWS V14.01,2013-09-17 16:46:00,
2013-09-17 09:51:00,55.0,52.2,29.71,SE,130,0.0,0.0,90,0.04,,---,0.04,VWS V14.01,2013-09-17 16:51:00,
2013-09-17 09:56:00,55.0,52.2,29.71,SE,130,0.0,0.0,90,0.04,,---,0.04,VWS V14.01,2013-09-17 16:56:00,
2013-09-17 10:01:00,55.2,52.3,29.71,SE,130,0.0,0.0,90,0.00,,---,0.04,VWS V14.01,2013-09-17 17:01:00,
2013-09-17 10:06:00,55.6,52.4,29.71,SE,130,2.7,3.1,89,0.00,,---,0.04,VWS V14.01,2013-09-17 17:06:00,
2013-09-17 10:11:00,55.8,52.6,29.71,SE,130,0.0,0.0,89,0.00,,---,0.04,VWS V14.01,2013-09-17 17:11:00,
2013-09-17 10:16:00,55.9,52.8,29.68,SE,130,0.0,0.0,89,0.00,,---,0.04,VWS V14.01,2013-09-17 17:16:00,
2013-09-17 10:22:00,56.3,52.8,29.68,SE,130,2.2,2.2,88,0.00,,---,0.04,VWS V14.01,2013-09-17 17:22:00,
2013-09-17 10:27:00,56.5,53.0,29.68,ENE,68,0.0,4.0,88,0.00,,---,0.04,VWS V14.01,2013-09-17 17:27:00,
2013-09-17 10:32:00,56.8,53.0,29.68,SE,141,0.0,0.0,87,0.00,,---,0.04,VWS V14.01,2013-09-17 17:32:00,
2013-09-17 10:37:00,56.8,52.7,29.68,SSE,149,0.0,0.0,86,0.00,,---,0.04,VWS V14.01,2013-09-17 17:37:00,
2013-09-17 10:42:00,57.0,52.6,29.68,West,278,0.0,3.1,85,0.00,,---,0.04,VWS V14.01,2013-09-17 17:42:00,
2013-09-17 10:47:00,57.2,52.7,29.68,WNW,297,0.0,3.6,85,0.00,,---,0.04,VWS V14.01,2013-09-17 17:47:00,
2013-09-17 10:52:00,57.2,52.7,29.68,East,100,2.7,4.0,85,0.00,,---,0.04,VWS V14.01,2013-09-17 17:52:00,
2013-09-17 10:57:00,57.6,52.4,29.68,SW,215,3.6,7.6,83,0.00,,---,0.04,VWS V14.01,2013-09-17 17:57:00,
2013-09-17 11:02:00,58.1,53.0,29.68,South,188,0.0,0.0,83,0.00,,---,0.04,VWS V14.01,2013-09-17 18:02:00,
2013-09-17 11:07:00,58.3,53.2,29.68,East,83,3.6,4.0,83,0.00,,---,0.04,VWS V14.01,2013-09-17 18:07:00,
2013-09-17 11:12:00,58.6,53.2,29.68,NW,314,2.7,4.0,82,0.00,,---,0.04,VWS V14.01,2013-09-17 18:12:00,
2013-09-17 11:17:00,58.8,53.0,29.68,North,0,2.2,4.0,81,0.00,,---,0.04,VWS V14.01,2013-09-17 18:17:00,
2013-09-17 11:22:00,59.0,52.5,29.68,ESE,117,0.0,3.1,79,0.00,,---,0.04,VWS V14.01,2013-09-17 18:22:00,
2013-09-17 11:27:00,59.2,52.0,29.68,SE,126,2.7,5.4,77,0.00,,---,0.04,VWS V14.01,2013-09-17 18:27:00,
2013-09-17 11:32:00,59.2,51.3,29.68,SE,142,0.0,3.6,75,0.00,,---,0.04,VWS V14.01,2013-09-17 18:32:00,
2013-09-17 11:37:00,59.4,50.0,29.68,SSE,160,0.0,5.8,71,0.00,,---,0.04,VWS V14.01,2013-09-17 18:37:00,
2013-09-17 11:42:00,59.7,49.9,29.68,SSE,155,2.7,5.8,70,0.00,,---,0.04,VWS V14.01,2013-09-17 18:42:00,
2013-09-17 11:47:00,59.7,49.9,29.65,South,189,3.6,8.1,70,0.00,,---,0.04,VWS V14.01,2013-09-17 18:47:00,
2013-09-17 11:52:00,59.9,50.5,29.65,NNE,16,0.0,4.9,71,0.00,,---,0.04,VWS V14.01,2013-09-17 18:52:00,
2013-09-17 11:57:00,60.1,51.0,29.65,SE,130,0.0,4.9,72,0.00,,---,0.04,VWS V14.01,2013-09-17 18:57:00,
2013-09-17 12:02:00,60.1,50.3,29.65,East,86,0.0,0.0,70,0.00,,---,0.04,VWS V14.01,2013-09-17 19:02:00,
2013-09-17 12:08:00,60.3,50.1,29.65,SSW,200,2.2,4.0,69,0.00,,---,0.04,VWS V14.01,2013-09-17 19:08:00,
2013-09-17 12:13:00,60.4,50.6,29.65,SW,229,0.0,0.0,70,0.00,,---,0.04,VWS V14.01,2013-09-17 19:13:00,
2013-09-17 12:18:00,60.6,50.8,29.65,WNW,303,3.6,5.8,70,0.00,,---,0.04,VWS V14.01,2013-09-17 19:18:00,
2013-09-17 12:23:00,60.8,51.0,29.65,WNW,303,0.0,0.0,70,0.00,,---,0.04,VWS V14.01,2013-09-17 19:23:00,
2013-09-17 12:28:00,61.0,51.1,29.65,South,174,2.2,3.1,70,0.00,,---,0.04,VWS V14.01,2013-09-17 19:28:00,
2013-09-17 12:33:00,61.0,51.5,29.65,ESE,123,0.0,0.0,71,0.00,,---,0.04,VWS V14.01,2013-09-17 19:33:00,
2013-09-17 12:38:00,61.2,50.9,29.65,SSE,159,0.0,3.6,69,0.00,,---,0.04,VWS V14.01,2013-09-17 19:38:00,
2013-09-17 12:43:00,61.2,50.5,29.65,SE,143,4.5,4.5,68,0.00,,---,0.04,VWS V14.01,2013-09-17 19:43:00,
2013-09-17 12:48:00,61.2,49.3,29.65,WNW,287,0.0,7.6,65,0.00,,---,0.04,VWS V14.01,2013-09-17 19:48:00,
2013-09-17 12:53:00,61.3,50.3,29.65,East,87,0.0,5.4,67,0.00,,---,0.04,VWS V14.01,2013-09-17 19:53:00,
2013-09-17 12:58:00,61.3,50.3,29.65,WNW,288,0.0,5.4,67,0.00,,---,0.04,VWS V14.01,2013-09-17 19:58:00,
2013-09-17 13:03:00,61.7,51.0,29.65,ENE,75,0.0,0.0,68,0.00,,---,0.04,VWS V14.01,2013-09-17 20:03:00,
2013-09-17 13:08:00,62.2,51.2,29.65,ESE,122,5.4,5.4,67,0.00,,---,0.04,VWS V14.01,2013-09-17 20:08:00,
2013-09-17 13:13:00,62.8,50.8,29.65,ESE,112,0.0,3.6,65,0.00,,---,0.04,VWS V14.01,2013-09-17 20:13:00,
2013-09-17 13:19:00,63.5,52.4,29.65,ESE,121,0.0,3.6,67,0.00,,---,0.04,VWS V14.01,2013-09-17 20:19:00,
2013-09-17 13:24:00,64.0,52.5,29.65,ESE,118,0.0,4.0,66,0.00,,---,0.04,VWS V14.01,2013-09-17 20:24:00,
2013-09-17 13:29:00,64.4,50.7,29.65,East,92,4.0,8.7,61,0.00,,---,0.04,VWS V14.01,2013-09-17 20:29:00,
2013-09-17 13:34:00,64.2,50.1,29.65,South,173,4.9,5.8,60,0.00,,---,0.04,VWS V14.01,2013-09-17 20:34:00,
2013-09-17 13:39:00,64.2,49.6,29.65,ESE,106,0.0,5.8,59,0.00,,---,0.04,VWS V14.01,2013-09-17 20:39:00,
2013-09-17 13:44:00,63.9,50.2,29.65,South,174,0.0,3.1,61,0.00,,---,0.04,VWS V14.01,2013-09-17 20:44:00,
2013-09-17 13:49:00,63.7,49.5,29.65,SE,146,2.7,3.1,60,0.00,,---,0.04,VWS V14.01,2013-09-17 20:49:00,
2013-09-17 13:54:00,63.5,49.8,29.65,SE,146,0.0,2.2,61,0.00,,---,0.04,VWS V14.01,2013-09-17 20:54:00,
2013-09-17 13:59:00,63.3,49.2,29.65,SSE,147,0.0,6.3,60,0.00,,---,0.04,VWS V14.01,2013-09-17 20:59:00,
2013-09-17 14:04:00,63.1,49.0,29.65,ENE,63,0.0,0.0,60,0.00,,---,0.04,VWS V14.01,2013-09-17 21:04:00,
2013-09-17 14:09:00,63.0,49.8,29.65,South,182,2.2,5.4,62,0.00,,---,0.04,VWS V14.01,2013-09-17 21:09:00,
2013-09-17 14:14:00,63.0,49.8,29.65,East,85,0.0,4.0,62,0.00,,---,0.04,VWS V14.01,2013-09-17 21:14:00,
2013-09-17 14:19:00,63.0,50.6,29.65,SW,233,0.0,4.0,64,0.00,,---,0.04,VWS V14.01,2013-09-17 21:19:00,
2013-09-17 14:24:00,63.0,49.3,29.65,ESE,121,0.0,3.6,61,0.00,,---,0.04,VWS V14.01,2013-09-17 21:24:00,
2013-09-17 14:29:00,63.0,50.2,29.65,NE,49,0.0,5.8,63,0.00,,---,0.04,VWS V14.01,2013-09-17 21:29:00,
2013-09-17 14:34:00,62.8,49.6,29.65,SE,137,0.0,4.0,62,0.00,,---,0.04,VWS V14.01,2013-09-17 21:34:00,
2013-09-17 14:39:00,62.6,48.5,29.65,NE,52,0.0,4.0,60,0.00,,---,0.04,VWS V14.01,2013-09-17 21:39:00,
2013-09-17 14:44:00,62.4,47.9,29.65,SW,217,3.6,6.7,59,0.00,,---,0.04,VWS V14.01,2013-09-17 21:44:00,
2013-09-17 14:50:00,62.1,47.6,29.65,SSW,199,2.2,7.6,59,0.00,,---,0.04,VWS V14.01,2013-09-17 21:50:00,
2013-09-17 14:55:00,61.9,47.4,29.65,WSW,252,3.6,6.3,59,0.00,,---,0.04,VWS V14.01,2013-09-17 21:55:00,
2013-09-17 15:00:00,61.7,47.2,29.65,SSW,193,3.6,6.3,59,0.00,,---,0.04,VWS V14.01,2013-09-17 22:00:00,
2013-09-17 15:05:00,61.5,47.5,29.65,SW,234,3.6,5.4,60,0.00,,---,0.04,VWS V14.01,2013-09-17 22:05:00,
2013-09-17 15:10:00,61.3,47.8,29.65,South,187,0.0,0.0,61,0.00,,---,0.04,VWS V14.01,2013-09-17 22:10:00,
2013-09-17 15:15:00,61.0,47.5,29.65,SW,233,0.0,5.4,61,0.00,,---,0.04,VWS V14.01,2013-09-17 22:15:00,
2013-09-17 15:20:00,60.8,46.4,29.65,SW,230,0.0,0.0,59,0.00,,---,0.04,VWS V14.01,2013-09-17 22:20:00,
2013-09-17 15:25:00,60.4,46.5,29.65,ESE,110,0.0,6.3,60,0.00,,---,0.04,VWS V14.01,2013-09-17 22:25:00,
2013-09-17 15:30:00,60.3,46.3,29.65,SSW,199,8.1,8.1,60,0.00,,---,0.04,VWS V14.01,2013-09-17 22:30:00,
2013-09-17 15:35:00,60.1,46.2,29.65,North,350,4.0,8.1,60,0.00,,---,0.04,VWS V14.01,2013-09-17 22:35:00,
2013-09-17 15:40:00,59.7,46.7,29.65,SSE,149,0.0,2.2,62,0.00,,---,0.04,VWS V14.01,2013-09-17 22:40:00,
2013-09-17 15:45:00,59.5,46.5,29.65,NNW,346,4.0,5.8,62,0.00,,---,0.04,VWS V14.01,2013-09-17 22:45:00,
2013-09-17 15:50:00,59.4,46.8,29.65,SSW,207,4.0,4.0,63,0.00,,---,0.04,VWS V14.01,2013-09-17 22:50:00,
2013-09-17 15:55:00,59.2,46.2,29.65,WNW,301,4.9,4.9,62,0.00,,---,0.04,VWS V14.01,2013-09-17 22:55:00,
2013-09-17 16:00:00,59.0,45.6,29.65,SE,126,0.0,4.9,61,0.00,,---,0.04,VWS V14.01,2013-09-17 23:00:00,
2013-09-17 16:05:00,58.8,45.8,29.65,West,279,0.0,4.9,62,0.00,,---,0.04,VWS V14.01,2013-09-17 23:05:00,
2013-09-17 16:10:00,58.6,46.5,29.65,SW,236,0.0,3.6,64,0.00,,---,0.04,VWS V14.01,2013-09-17 23:10:00,
2013-09-17 16:15:00,58.5,46.3,29.68,SW,218,2.7,5.4,64,0.00,,---,0.04,VWS V14.01,2013-09-17 23:15:00,
2013-09-17 16:20:00,58.1,44.7,29.68,SSE,157,3.1,7.6,61,0.00,,---,0.04,VWS V14.01,2013-09-17 23:20:00,
2013-09-17 16:26:00,57.9,45.0,29.68,WNW,293,4.0,7.6,62,0.00,,---,0.04,VWS V14.01,2013-09-17 23:26:00,
2013-09-17 16:31:00,57.6,44.7,29.68,West,267,3.1,5.4,62,0.00,,---,0.04,VWS V14.01,2013-09-17 23:31:00,
2013-09-17 16:36:00,57.4,44.9,29.68,ESE,116,2.7,13.2,63,0.00,,---,0.04,VWS V14.01,2013-09-17 23:36:00,
2013-09-17 16:41:00,57.2,45.2,29.68,South,176,3.6,3.6,64,0.00,,---,0.04,VWS V14.01,2013-09-17 23:41:00,
2013-09-17 16:46:00,57.2,45.2,29.68,SW,225,5.8,6.7,64,0.00,,---,0.04,VWS V14.01,2013-09-17 23:46:00,
2013-09-17 16:51:00,57.0,45.4,29.68,South,171,2.2,4.0,65,0.00,,---,0.04,VWS V14.01,2013-09-17 23:51:00,
2013-09-17 16:56:00,56.8,45.2,29.68,West,265,7.2,10.5,65,0.00,,---,0.04,VWS V14.01,2013-09-17 23:56:00,
2013-09-17 17:01:00,56.8,45.2,29.68,SSE,154,0.0,0.0,65,0.00,,---,0.04,VWS V14.01,2013-09-18 00:01:00,
2013-09-17 17:06:00,56.7,45.0,29.68,WSW,251,2.7,4.9,65,0.00,,---,0.04,VWS V14.01,2013-09-18 00:06:00,
2013-09-17 17:11:00,56.7,45.0,29.68,WNW,294,0.0,0.0,65,0.00,,---,0.04,VWS V14.01,2013-09-18 00:11:00,
2013-09-17 17:16:00,56.7,45.8,29.68,SSE,154,0.0,0.0,67,0.00,,---,0.04,VWS V14.01,2013-09-18 00:16:00,
2013-09-17 17:21:00,56.7,45.8,29.68,SSE,168,0.0,0.0,67,0.00,,---,0.04,VWS V14.01,2013-09-18 00:21:00,
2013-09-17 17:26:00,56.7,45.8,29.68,East,100,2.7,4.5,67,0.00,,---,0.04,VWS V14.01,2013-09-18 00:26:00,
2013-09-17 17:31:00,56.5,46.1,29.68,East,83,0.0,0.0,68,0.00,,---,0.04,VWS V14.01,2013-09-18 00:31:00,
2013-09-17 17:36:00,56.5,46.1,29.68,WSW,239,0.0,5.8,68,0.00,,---,0.04,VWS V14.01,2013-09-18 00:36:00,
2013-09-17 17:41:00,56.5,46.5,29.68,WNW,303,0.0,0.0,69,0.00,,---,0.04,VWS V14.01,2013-09-18 00:41:00,
2013-09-17 17:46:00,56.5,46.5,29.68,SSW,208,0.0,0.0,69,0.00,,---,0.04,VWS V14.01,2013-09-18 00:46:00,
2013-09-17 17:52:00,56.5,46.1,29.68,SSE,155,0.0,0.0,68,0.00,,---,0.04,VWS V14.01,2013-09-18 00:52:00,
2013-09-17 17:57:00,56.5,46.5,29.68,SE,127,0.0,0.0,69,0.00,,---,0.04,VWS V14.01,2013-09-18 00:57:00,
2013-09-17 18:02:00,56.3,46.7,29.68,NNW,343,0.0,0.0,70,0.00,,---,0.04,VWS V14.01,2013-09-18 01:02:00,
2013-09-17 18:07:00,56.3,46.7,29.68,ESE,108,0.0,0.0,70,0.00,,---,0.04,VWS V14.01,2013-09-18 01:07:00,
2013-09-17 18:12:00,56.3,47.0,29.68,ESE,108,0.0,0.0,71,0.00,,---,0.04,VWS V14.01,2013-09-18 01:12:00,
2013-09-17 18:17:00,56.3,47.4,29.68,East,82,2.2,4.0,72,0.00,,---,0.04,VWS V14.01,2013-09-18 01:17:00,
2013-09-17 18:22:00,56.1,47.6,29.68,East,82,0.0,0.0,73,0.00,,---,0.04,VWS V14.01,2013-09-18 01:22:00,
2013-09-17 18:27:00,56.1,47.6,29.68,East,101,0.0,0.0,73,0.00,,---,0.04,VWS V14.01,2013-09-18 01:27:00,
2013-09-17 18:32:00,55.9,47.8,29.68,ESE,122,0.0,3.6,74,0.00,,---,0.04,VWS V14.01,2013-09-18 01:32:00,
2013-09-17 18:37:00,55.8,47.2,29.68,SE,142,4.0,4.0,73,0.00,,---,0.04,VWS V14.01,2013-09-18 01:37:00,
2013-09-17 18:42:00,55.8,46.9,29.68,ESE,118,0.0,0.0,72,0.00,,---,0.04,VWS V14.01,2013-09-18 01:42:00,
2013-09-17 18:47:00,55.8,46.9,29.68,ESE,118,0.0,0.0,72,0.00,,---,0.04,VWS V14.01,2013-09-18 01:47:00,
2013-09-17 18:52:00,55.6,47.1,29.68,ESE,118,0.0,0.0,73,0.00,,---,0.04,VWS V14.01,2013-09-18 01:52:00,
2013-09-17 18:57:00,55.6,47.1,29.68,ESE,118,0.0,0.0,73,0.00,,---,0.04,VWS V14.01,2013-09-18 01:57:00,
2013-09-17 19:02:00,55.4,46.9,29.68,ESE,118,0.0,0.0,73,0.00,,---,0.04,VWS V14.01,2013-09-18 02:02:00,
2013-09-17 19:07:00,55.2,47.1,29.68,ESE,118,0.0,0.0,74,0.00,,---,0.04,VWS V14.01,2013-09-18 02:07:00,
2013-09-17 19:12:00,55.0,46.9,29.68,ESE,118,0.0,0.0,74,0.00,,---,0.04,VWS V14.01,2013-09-18 02:12:00,
2013-09-17 19:17:00,54.9,46.7,29.68,ESE,118,0.0,0.0,74,0.00,,---,0.04,VWS V14.01,2013-09-18 02:17:00,
2013-09-17 19:23:00,54.5,46.4,29.68,ESE,118,0.0,0.0,74,0.00,,---,0.04,VWS V14.01,2013-09-18 02:23:00,
2013-09-17 19:28:00,54.1,46.4,29.68,East,85,4.0,4.0,75,0.00,,---,0.04,VWS V14.01,2013-09-18 02:28:00,
2013-09-17 19:33:00,54.0,46.2,29.71,East,89,3.1,4.0,75,0.00,,---,0.04,VWS V14.01,2013-09-18 02:33:00,
2013-09-17 19:38:00,53.8,46.0,29.71,SE,125,4.0,6.3,75,0.00,,---,0.04,VWS V14.01,2013-09-18 02:38:00,
2013-09-17 19:43:00,54.0,45.5,29.71,SSW,201,0.0,4.0,73,0.00,,---,0.04,VWS V14.01,2013-09-18 02:43:00,
2013-09-17 19:48:00,54.0,45.2,29.71,SSW,203,0.0,4.0,72,0.00,,---,0.04,VWS V14.01,2013-09-18 02:48:00,
2013-09-17 19:53:00,53.8,45.0,29.71,SE,125,0.0,3.6,72,0.00,,---,0.04,VWS V14.01,2013-09-18 02:53:00,
2013-09-17 19:58:00,53.8,45.3,29.71,ESE,107,0.0,3.6,73,0.00,,---,0.04,VWS V14.01,2013-09-18 02:58:00,
2013-09-17 20:03:00,53.6,45.2,29.71,ESE,104,0.0,0.0,73,0.00,,---,0.04,VWS V14.01,2013-09-18 03:03:00,
2013-09-17 20:08:00,53.6,45.2,29.71,SE,138,0.0,4.0,73,0.00,,---,0.04,VWS V14.01,2013-09-18 03:08:00,
2013-09-17 20:13:00,53.4,45.3,29.71,ENE,71,4.0,4.0,74,0.00,,---,0.04,VWS V14.01,2013-09-18 03:13:00,
2013-09-17 20:18:00,53.2,45.2,29.71,ESE,123,0.0,4.0,74,0.00,,---,0.04,VWS V14.01,2013-09-18 03:18:00,
2013-09-17 20:23:00,53.1,45.4,29.71,NE,34,0.0,0.0,75,0.00,,---,0.04,VWS V14.01,2013-09-18 03:23:00,
2013-09-17 20:28:00,53.1,45.4,29.71,SE,143,0.0,0.0,75,0.00,,---,0.04,VWS V14.01,2013-09-18 03:28:00,
2013-09-17 20:33:00,52.9,45.5,29.71,SSW,210,0.0,0.0,76,0.00,,---,0.04,VWS V14.01,2013-09-18 03:33:00,
2013-09-17 20:38:00,52.7,45.4,29.71,SSW,210,0.0,0.0,76,0.00,,---,0.04,VWS V14.01,2013-09-18 03:38:00,
2013-09-17 20:44:00,52.7,45.4,29.71,ENE,57,0.0,0.0,76,0.00,,---,0.04,VWS V14.01,2013-09-18 03:44:00,
2013-09-17 20:49:00,52.5,45.5,29.71,ESE,105,0.0,0.0,77,0.00,,---,0.04,VWS V14.01,2013-09-18 03:49:00,
2013-09-17 20:54:00,52.5,45.5,29.71,NNE,21,0.0,0.0,77,0.00,,---,0.04,VWS V14.01,2013-09-18 03:54:00,
2013-09-17 20:59:00,52.3,45.3,29.71,SSW,205,0.0,0.0,77,0.00,,---,0.04,VWS V14.01,2013-09-18 03:59:00,
2013-09-17 21:01:00,52.3,45.7,29.71,SSW,205,0.0,0.0,78,0.00,,---,0.04,VWS V14.01,2013-09-18 04:01:00,
2013-09-17 21:02:00,52.3,45.7,29.71,SSW,205,0.0,0.0,78,0.00,,---,0.04,VWS V14.01,2013-09-18 04:02:00,
2013-09-17 21:07:00,52.2,45.8,29.71,NW,305,0.0,0.0,79,0.00,,---,0.04,VWS V14.01,2013-09-18 04:07:00,
2013-09-17 21:12:00,52.2,45.8,29.71,NNW,327,0.0,0.0,79,0.00,,---,0.04,VWS V14.01,2013-09-18 04:12:00,
2013-09-17 21:17:00,52.0,45.7,29.71,NNW,327,0.0,0.0,79,0.00,,---,0.04,VWS V14.01,2013-09-18 04:17:00,
2013-09-17 21:23:00,52.0,46.0,29.71,NE,48,0.0,2.7,80,0.00,,---,0.04,VWS V14.01,2013-09-18 04:23:00,
2013-09-17 21:28:00,52.0,46.0,29.71,North,11,0.0,5.8,80,0.00,,---,0.04,VWS V14.01,2013-09-18 04:28:00,
2013-09-17 21:33:00,52.2,46.2,29.74,East,101,4.0,5.4,80,0.00,,---,0.04,VWS V14.01,2013-09-18 04:33:00,
2013-09-17 21:38:00,52.2,45.8,29.74,ESE,114,0.0,5.4,79,0.00,,---,0.04,VWS V14.01,2013-09-18 04:38:00,
2013-09-17 21:43:00,52.3,46.0,29.74,ESE,114,0.0,0.0,79,0.00,,---,0.04,VWS V14.01,2013-09-18 04:43:00,
2013-09-17 21:48:00,52.5,46.2,29.74,ESE,114,0.0,0.0,79,0.00,,---,0.04,VWS V14.01,2013-09-18 04:48:00,
2013-09-17 21:53:00,52.5,46.5,29.74,ESE,114,0.0,0.0,80,0.00,,---,0.04,VWS V14.01,2013-09-18 04:53:00,
2013-09-17 21:58:00,52.5,46.5,29.74,ESE,114,0.0,0.0,80,0.00,,---,0.04,VWS V14.01,2013-09-18 04:58:00,
2013-09-17 22:03:00,52.5,46.5,29.74,ESE,114,0.0,0.0,80,0.00,,---,0.04,VWS V14.01,2013-09-18 05:03:00,
2013-09-17 22:08:00,52.5,46.5,29.74,ESE,114,0.0,0.0,80,0.00,,---,0.04,VWS V14.01,2013-09-18 05:08:00,
2013-09-17 22:13:00,52.5,46.9,29.74,ESE,103,0.0,0.0,81,0.00,,---,0.04,VWS V14.01,2013-09-18 05:13:00,
2013-09-17 22:18:00,52.5,46.9,29.74,NNE,33,0.0,0.0,81,0.00,,---,0.04,VWS V14.01,2013-09-18 05:18:00,
2013-09-17 22:23:00,52.5,46.9,29.74,NNE,33,0.0,0.0,81,0.00,,---,0.04,VWS V14.01,2013-09-18 05:23:00,
2013-09-17 22:28:00,52.3,46.7,29.74,NNE,33,0.0,0.0,81,0.00,,---,0.04,VWS V14.01,2013-09-18 05:28:00,
2013-09-17 22:31:00,52.3,46.7,29.74,NNE,33,0.0,0.0,81,0.00,,---,0.04,VWS V14.01,2013-09-18 05:31:00,
2013-09-17 22:36:00,52.3,46.7,29.74,NNE,33,0.0,0.0,81,0.00,,---,0.04,VWS V14.01,2013-09-18 05:36:00,
2013-09-17 22:42:00,52.2,46.5,29.74,NNE,33,0.0,0.0,81,0.00,,---,0.04,VWS V14.01,2013-09-18 05:42:00,
2013-09-17 22:47:00,52.2,46.5,29.74,NNE,33,0.0,0.0,81,0.00,,---,0.04,VWS V14.01,2013-09-18 05:47:00,
2013-09-17 22:52:00,52.2,46.5,29.74,ESE,120,0.0,0.0,81,0.00,,---,0.04,VWS V14.01,2013-09-18 05:52:00,
2013-09-17 22:57:00,52.2,46.5,29.74,ESE,120,0.0,0.0,81,0.00,,---,0.04,VWS V14.01,2013-09-18 05:57:00,
2013-09-17 23:02:00,52.2,46.5,29.74,ESE,120,0.0,0.0,81,0.00,,---,0.04,VWS V14.01,2013-09-18 06:02:00,
2013-09-17 23:07:00,52.2,46.8,29.74,ESE,120,0.0,0.0,82,0.00,,---,0.04,VWS V14.01,2013-09-18 06:07:00,
2013-09-17 23:12:00,52.0,46.7,29.74,ESE,120,0.0,0.0,82,0.00,,---,0.04,VWS V14.01,2013-09-18 06:12:00,
2013-09-17 23:17:00,52.0,46.7,29.74,ESE,107,0.0,3.1,82,0.00,,---,0.04,VWS V14.01,2013-09-18 06:17:00,
2013-09-17 23:22:00,51.8,46.5,29.74,NE,41,3.6,5.4,82,0.00,,---,0.04,VWS V14.01,2013-09-18 06:22:00,
2013-09-17 23:27:00,51.8,45.8,29.74,North,10,0.0,5.4,80,0.00,,---,0.04,VWS V14.01,2013-09-18 06:27:00,
2013-09-17 23:32:00,51.8,45.8,29.74,NW,310,0.0,0.0,80,0.00,,---,0.04,VWS V14.01,2013-09-18 06:32:00,
2013-09-17 23:37:00,51.6,45.7,29.74,South,176,0.0,4.0,80,0.00,,---,0.04,VWS V14.01,2013-09-18 06:37:00,
2013-09-17 23:42:00,51.6,45.7,29.74,South,176,0.0,0.0,80,0.00,,---,0.04,VWS V14.01,2013-09-18 06:42:00,
2013-09-17 23:47:00,51.4,45.5,29.74,South,176,0.0,0.0,80,0.00,,---,0.04,VWS V14.01,2013-09-18 06:47:00,
2013-09-17 23:52:00,51.4,45.5,29.74,South,176,0.0,0.0,80,0.00,,---,0.04,VWS V14.01,2013-09-18 06:52:00,
2013-09-17 23:58:00,51.3,45.3,29.74,South,176,0.0,0.0,80,0.00,,---,0.04,VWS V14.01,2013-09-18 06:58:00,